Abraao, Brazil
Current Conditions -  °F | °C
As of 11:00 AM on Thursday 27 Nov 2014 (Local Time) from SBSC Reporting Station
Broken Clouds Broken Clouds  
Wind Chill: 84°   Ceiling: 700
Heat Index: 96°   Visibility: 6mi
Dew Point: 79°   Wind: 12mph
Humidity: 84%   Direction: 210°SSW
Pressure: 29.85"   Gusts: NA
Location:  23.14°S, 44.17°W
Report Text: SBSC 271300Z 21010KT 9999 BKN007 BKN040 29/26 Q1011
Loading
Personal Weather Stations






























Interactive Weather Map New forecast layout! Learn more

10-Day Weather Forecast

Advertisements
Track Severe Weather on mobile